Terminal Aerodrome Forecast
Issued by NWS

Home | Current Version | Previous Version | Text Only | Print | Product List | Glossary On
Versions: 1 2 3 4 5 6 7 8 9 10 11 12 13 14 15 16 17 18 19 20
000
FTUS46 KMTR 212338
TAFSTS
TAF
KSTS 212338Z 2200/2224 23003KT P6SM OVC019
      TEMPO 2200/2204 SCT020
     FM220400 16004KT P6SM BKN015
     FM221000 00000KT P6SM OVC010
     FM221900 19007KT P6SM SKC=

USA.gov is the U.S. government's official web portal to all federal, state and local government web resources and services.